createdAt,value
2023-03-05T00:01:30.554Z,95.60
2023-03-05T00:03:58.940Z,95.60
2023-03-05T00:06:29.024Z,95.50
2023-03-05T00:08:58.425Z,95.70
2023-03-05T00:11:29.729Z,95.50
2023-03-05T00:13:58.854Z,95.50
2023-03-05T00:16:29.418Z,95.40
2023-03-05T00:18:59.161Z,95.50
2023-03-05T00:21:29.311Z,95.50
2023-03-05T00:23:58.360Z,95.40
2023-03-05T00:26:27.766Z,95.60
2023-03-05T00:28:57.060Z,95.40
2023-03-05T00:31:30.325Z,95.40
2023-03-05T00:34:01.665Z,95.40
2023-03-05T00:36:29.795Z,95.50
2023-03-05T00:38:58.300Z,95.60
2023-03-05T00:41:26.619Z,95.60
2023-03-05T00:43:55.231Z,95.60
2023-03-05T00:46:24.521Z,95.70
2023-03-05T00:48:52.681Z,95.50
2023-03-05T00:51:22.973Z,95.50
2023-03-05T00:53:51.282Z,95.60
2023-03-05T00:56:19.625Z,95.40
2023-03-05T00:58:47.745Z,95.50
2023-03-05T01:01:16.809Z,95.60
2023-03-05T01:03:44.902Z,95.60
2023-03-05T01:06:15.113Z,95.90
2023-03-05T01:08:44.795Z,96.20
2023-03-05T01:11:13.212Z,96.20
2023-03-05T01:13:41.833Z,96.30
2023-03-05T01:16:10.233Z,96.30
2023-03-05T01:18:39.941Z,96.60
2023-03-05T01:21:09.048Z,96.70
2023-03-05T01:23:38.151Z,96.60
2023-03-05T01:26:08.574Z,96.80
2023-03-05T01:28:38.279Z,96.90
2023-03-05T01:31:09.788Z,96.80
2023-03-05T01:33:38.894Z,96.90
2023-03-05T01:36:10.122Z,96.70
2023-03-05T01:38:38.144Z,96.80
2023-03-05T01:41:07.819Z,96.80
2023-03-05T01:43:35.866Z,96.90
2023-03-05T01:46:28.207Z,97.00
2023-03-05T01:49:02.510Z,97.30
2023-03-05T01:51:33.189Z,97.50
2023-03-05T01:54:01.811Z,97.80
2023-03-05T01:56:32.165Z,98.30
2023-03-05T01:59:04.285Z,98.30
2023-03-05T02:01:35.285Z,98.50
2023-03-05T02:04:03.956Z,98.70
2023-03-05T02:06:32.397Z,98.80
2023-03-05T02:09:01.055Z,98.90
2023-03-05T02:11:29.174Z,99.20
2023-03-05T02:13:59.571Z,99.50
2023-03-05T02:16:29.276Z,99.80
2023-03-05T02:18:58.249Z,99.90
2023-03-05T02:21:36.710Z,99.90
2023-03-05T02:24:05.104Z,99.90
2023-03-05T02:26:33.171Z,99.90
2023-03-05T02:29:06.844Z,99.90
2023-03-05T02:31:35.078Z,99.90
2023-03-05T02:34:03.368Z,99.90
2023-03-05T02:36:33.072Z,99.90
2023-03-05T02:39:01.823Z,99.90
2023-03-05T02:41:30.008Z,99.90
2023-03-05T02:43:59.967Z,99.90
2023-03-05T02:46:28.311Z,99.90
2023-03-05T02:48:56.345Z,99.90
2023-03-05T02:51:25.492Z,99.90
2023-03-05T02:53:55.763Z,99.90
2023-03-05T02:56:27.199Z,99.90
2023-03-05T02:58:55.571Z,99.90
2023-03-05T03:01:23.807Z,99.90
2023-03-05T03:03:51.974Z,99.90
2023-03-05T03:06:20.046Z,99.90
2023-03-05T03:08:48.348Z,99.90
2023-03-05T03:11:18.673Z,99.90
2023-03-05T03:13:46.687Z,99.90
2023-03-05T03:16:17.886Z,99.90
2023-03-05T03:18:47.613Z,99.90
2023-03-05T03:21:21.894Z,99.90
2023-03-05T03:23:49.943Z,99.90
2023-03-05T03:26:20.284Z,99.90
2023-03-05T03:28:48.492Z,99.90
2023-03-05T03:31:16.641Z,99.90
2023-03-05T03:33:45.226Z,99.90
2023-03-05T03:36:13.618Z,99.90
2023-03-05T03:38:41.670Z,99.90
2023-03-05T03:41:10.284Z,99.90
2023-03-05T03:43:39.739Z,99.90
2023-03-05T03:46:08.641Z,99.90
2023-03-05T03:48:37.049Z,99.90
2023-03-05T03:51:07.502Z,99.90
2023-03-05T03:53:35.576Z,99.90
2023-03-05T03:56:04.493Z,99.90
2023-03-05T03:58:32.620Z,99.90
2023-03-05T04:01:02.254Z,99.90
2023-03-05T04:03:30.658Z,99.90
2023-03-05T04:05:58.709Z,99.90
2023-03-05T04:08:26.845Z,99.90
2023-03-05T04:10:54.972Z,99.90
2023-03-05T04:13:23.007Z,99.90
2023-03-05T04:15:51.342Z,99.90
2023-03-05T04:18:20.751Z,99.90
2023-03-05T04:20:48.965Z,99.90
2023-03-05T04:23:17.355Z,99.90
2023-03-05T04:25:46.156Z,99.90
2023-03-05T04:28:14.472Z,99.90
2023-03-05T04:30:42.654Z,99.90
2023-03-05T04:33:10.888Z,99.90
2023-03-05T04:35:40.395Z,99.90
2023-03-05T04:38:08.561Z,99.90
2023-03-05T04:40:36.933Z,99.90
2023-03-05T04:43:05.514Z,99.90
2023-03-05T04:45:33.762Z,99.90
2023-03-05T04:48:02.382Z,99.90
2023-03-05T04:50:30.417Z,99.90
2023-03-05T04:53:00.537Z,99.90
2023-03-05T04:55:29.114Z,99.90
2023-03-05T04:57:57.137Z,99.90
2023-03-05T05:00:25.517Z,99.90
2023-03-05T05:02:54.382Z,99.90
2023-03-05T05:05:24.273Z,99.90
2023-03-05T05:07:55.225Z,99.90
2023-03-05T05:10:25.492Z,99.90
2023-03-05T05:12:53.558Z,99.90
2023-03-05T05:15:21.719Z,99.90
2023-03-05T05:17:49.910Z,99.90
2023-03-05T05:20:18.619Z,99.90
2023-03-05T05:22:46.692Z,99.90
2023-03-05T05:25:14.733Z,99.90
2023-03-05T05:27:44.123Z,99.90
2023-03-05T05:30:13.312Z,99.90
2023-03-05T05:32:42.100Z,99.90
2023-03-05T05:35:11.849Z,99.90
2023-03-05T05:37:39.936Z,99.90
2023-03-05T05:40:09.663Z,99.90
2023-03-05T05:42:37.873Z,99.90
2023-03-05T05:45:08.832Z,99.90
2023-03-05T05:47:37.032Z,99.90
2023-03-05T05:50:05.507Z,99.90
2023-03-05T05:52:33.542Z,99.90
2023-03-05T05:55:01.599Z,99.90
2023-03-05T05:57:29.747Z,99.90
2023-03-05T05:59:58.079Z,99.90
2023-03-05T06:02:28.105Z,99.90
2023-03-05T06:04:58.133Z,99.90
2023-03-05T06:07:26.386Z,99.90
2023-03-05T06:09:54.382Z,99.90
2023-03-05T06:12:22.418Z,99.90
2023-03-05T06:14:50.636Z,99.90
2023-03-05T06:17:28.543Z,99.90
2023-03-05T06:19:58.399Z,99.90
2023-03-05T06:22:26.708Z,99.90
2023-03-05T06:24:54.719Z,99.90
2023-03-05T06:27:22.916Z,99.90
2023-03-05T06:29:54.194Z,99.90
2023-03-05T06:32:22.360Z,99.90
2023-03-05T06:34:50.876Z,99.90
2023-03-05T06:37:20.653Z,99.90
2023-03-05T06:39:48.752Z,99.90
2023-03-05T06:42:17.829Z,99.90
2023-03-05T06:44:48.190Z,99.90
2023-03-05T06:47:16.542Z,99.90
2023-03-05T06:49:44.625Z,99.90
2023-03-05T06:52:12.912Z,99.90
2023-03-05T06:54:42.342Z,99.90
2023-03-05T06:57:11.525Z,99.90
2023-03-05T06:59:39.570Z,99.90
2023-03-05T07:02:07.790Z,99.90
2023-03-05T07:04:35.928Z,99.90
2023-03-05T07:07:04.061Z,99.90
2023-03-05T07:09:32.111Z,99.90
2023-03-05T07:12:01.505Z,99.90
2023-03-05T07:14:29.606Z,99.90
2023-03-05T07:16:57.661Z,99.90
2023-03-05T07:19:25.671Z,99.90
2023-03-05T07:21:53.686Z,99.90
2023-03-05T07:24:21.759Z,99.90
2023-03-05T07:26:49.761Z,99.90
2023-03-05T07:29:19.140Z,99.90
2023-03-05T07:31:47.170Z,99.90
2023-03-05T07:34:15.174Z,99.90
2023-03-05T07:36:43.391Z,99.90
2023-03-05T07:39:12.870Z,99.90
2023-03-05T07:41:40.965Z,99.90
2023-03-05T07:44:09.042Z,99.90
2023-03-05T07:46:38.564Z,99.90
2023-03-05T07:49:07.225Z,99.90
2023-03-05T07:51:35.440Z,99.90
2023-03-05T07:54:03.591Z,99.90
2023-03-05T07:56:35.238Z,99.90
2023-03-05T07:59:05.358Z,99.90
2023-03-05T08:01:34.271Z,99.90
2023-03-05T08:04:05.166Z,99.90
2023-03-05T08:06:33.312Z,99.90
2023-03-05T08:09:01.587Z,99.90
2023-03-05T08:11:30.010Z,99.90
2023-03-05T08:13:59.484Z,99.90
2023-03-05T08:16:27.634Z,99.90
2023-03-05T08:18:58.241Z,99.90
2023-03-05T08:21:29.801Z,99.90
2023-03-05T08:23:59.018Z,99.90
2023-03-05T08:26:29.516Z,99.90
2023-03-05T08:28:57.646Z,99.90
2023-03-05T08:31:30.202Z,99.90
2023-03-05T08:34:00.509Z,99.90
2023-03-05T08:36:30.589Z,99.90
2023-03-05T08:39:00.417Z,99.90
2023-03-05T08:41:28.834Z,99.90
2023-03-05T08:43:57.002Z,99.90
2023-03-05T08:46:25.329Z,99.70
2023-03-05T08:48:53.646Z,99.20
2023-03-05T08:51:25.952Z,99.70
2023-03-05T08:53:57.419Z,99.90
2023-03-05T08:56:27.254Z,99.20
2023-03-05T08:58:55.441Z,98.70
2023-03-05T09:01:24.052Z,99.50
2023-03-05T09:03:52.298Z,98.50
2023-03-05T09:06:20.485Z,98.20
2023-03-05T09:08:48.548Z,98.30
2023-03-05T09:11:18.103Z,98.00
2023-03-05T09:13:47.151Z,96.80
2023-03-05T09:16:17.426Z,98.00
2023-03-05T09:18:45.769Z,97.50
2023-03-05T09:21:15.959Z,97.20
2023-03-05T09:23:44.917Z,96.70
2023-03-05T09:26:16.279Z,97.10
2023-03-05T09:28:46.035Z,97.10
2023-03-05T09:31:14.389Z,96.70
2023-03-05T09:33:42.524Z,97.20
2023-03-05T09:36:19.708Z,96.40
2023-03-05T09:38:47.812Z,95.90
2023-03-05T09:41:22.167Z,95.60
2023-03-05T09:43:59.857Z,95.20
2023-03-05T09:46:42.011Z,95.50
2023-03-05T09:49:18.683Z,95.00
2023-03-05T09:51:48.113Z,95.30
2023-03-05T09:54:19.943Z,95.30
2023-03-05T09:56:51.033Z,95.80
2023-03-05T09:59:27.566Z,94.40
2023-03-05T10:01:59.030Z,94.50
2023-03-05T10:04:44.333Z,95.10
2023-03-05T10:07:17.940Z,94.60
2023-03-05T10:09:49.801Z,94.80
2023-03-05T10:12:25.372Z,94.00
2023-03-05T10:14:55.959Z,94.40
2023-03-05T10:17:41.058Z,94.30
2023-03-05T10:20:26.083Z,93.60
2023-03-05T10:23:29.398Z,93.20
2023-03-05T10:26:08.655Z,92.50
2023-03-05T10:28:44.276Z,92.90
2023-03-05T10:31:24.893Z,92.70
2023-03-05T10:34:06.369Z,92.40
2023-03-05T10:36:49.164Z,91.80
2023-03-05T10:39:52.751Z,91.90
2023-03-05T10:42:32.087Z,91.50
2023-03-05T10:45:01.665Z,91.60
2023-03-05T10:47:40.424Z,91.60
2023-03-05T10:50:18.300Z,91.10
2023-03-05T10:52:51.653Z,91.30
2023-03-05T10:55:22.541Z,91.50
2023-03-05T10:57:50.659Z,90.90
2023-03-05T11:00:22.799Z,88.80
2023-03-05T11:02:58.829Z,88.40
2023-03-05T11:05:44.615Z,88.70
2023-03-05T11:08:31.625Z,89.20
2023-03-05T11:11:15.745Z,89.40
2023-03-05T11:14:04.204Z,89.60
2023-03-05T11:16:35.198Z,88.80
2023-03-05T11:19:19.800Z,88.00
2023-03-05T11:22:05.517Z,87.20
2023-03-05T11:24:33.849Z,87.20
2023-03-05T11:27:01.958Z,86.60
2023-03-05T11:29:32.717Z,85.60
2023-03-05T11:32:17.466Z,85.60
2023-03-05T11:34:46.964Z,84.90
2023-03-05T11:37:24.189Z,87.20
2023-03-05T11:40:15.501Z,86.10
2023-03-05T11:42:44.952Z,85.20
2023-03-05T11:45:18.929Z,82.70
2023-03-05T11:47:50.483Z,82.80
2023-03-05T11:50:24.250Z,81.60
2023-03-05T11:52:55.326Z,83.10
2023-03-05T11:55:29.374Z,81.20
2023-03-05T11:58:05.800Z,83.00
2023-03-05T12:00:37.505Z,81.50
2023-03-05T12:03:12.355Z,80.90
2023-03-05T12:05:45.276Z,82.60
2023-03-05T12:08:16.586Z,83.20
2023-03-05T12:10:44.728Z,82.10
2023-03-05T12:13:19.508Z,81.90
2023-03-05T12:16:12.279Z,82.60
2023-03-05T12:18:49.348Z,83.60
2023-03-05T12:21:28.731Z,84.20
2023-03-05T12:24:01.380Z,83.00
2023-03-05T12:26:56.112Z,83.60
2023-03-05T12:29:38.598Z,83.90
2023-03-05T12:32:28.901Z,82.10
2023-03-05T12:35:01.118Z,82.90
2023-03-05T12:38:26.490Z,84.00
2023-03-05T12:41:35.775Z,83.70
2023-03-05T12:44:21.341Z,82.60
2023-03-05T12:47:18.361Z,84.10
2023-03-05T12:49:48.641Z,83.80
2023-03-05T12:52:25.030Z,82.20
2023-03-05T12:55:04.829Z,82.90
2023-03-05T12:57:34.809Z,83.30
2023-03-05T13:00:10.961Z,83.20
2023-03-05T13:02:42.175Z,83.20
2023-03-05T13:05:20.810Z,84.60
2023-03-05T13:07:49.081Z,83.30
2023-03-05T13:10:25.625Z,84.50
2023-03-05T13:12:56.982Z,85.30
2023-03-05T13:15:27.072Z,85.10
2023-03-05T13:17:57.991Z,86.00
2023-03-05T13:20:29.898Z,86.80
2023-03-05T13:23:20.597Z,86.80
2023-03-05T13:25:59.580Z,87.40
2023-03-05T13:28:30.022Z,87.30
2023-03-05T13:30:59.682Z,87.90
2023-03-05T13:33:30.317Z,89.20
2023-03-05T13:35:59.372Z,90.10
2023-03-05T13:38:33.945Z,90.70
2023-03-05T13:41:19.508Z,91.20
2023-03-05T13:43:51.479Z,90.40
2023-03-05T13:46:28.397Z,90.80
2023-03-05T13:48:56.761Z,91.20
2023-03-05T13:51:25.748Z,90.70
2023-03-05T13:53:54.409Z,90.80
2023-03-05T13:56:22.756Z,91.00
2023-03-05T13:58:54.561Z,91.10
2023-03-05T14:01:33.708Z,91.10
2023-03-05T14:04:08.131Z,91.20
2023-03-05T14:06:42.248Z,91.00
2023-03-05T14:09:20.766Z,90.90
2023-03-05T14:12:01.255Z,90.70
2023-03-05T14:14:32.403Z,90.80
2023-03-05T14:17:21.874Z,90.80
2023-03-05T14:19:50.182Z,90.70
2023-03-05T14:22:32.470Z,90.80
2023-03-05T14:25:00.547Z,91.20
2023-03-05T14:27:32.600Z,91.30
2023-03-05T14:30:02.431Z,91.60
2023-03-05T14:32:34.483Z,91.90
2023-03-05T14:35:05.031Z,91.70
2023-03-05T14:37:36.861Z,92.40
2023-03-05T14:40:07.336Z,93.30
2023-03-05T14:42:39.005Z,93.80
2023-03-05T14:45:17.640Z,93.00
2023-03-05T14:47:46.193Z,92.20
2023-03-05T14:50:17.780Z,91.50
2023-03-05T14:52:47.227Z,91.80
2023-03-05T14:55:16.430Z,91.80
2023-03-05T14:57:45.035Z,91.90
2023-03-05T15:00:19.197Z,92.00
2023-03-05T15:02:47.641Z,91.50
2023-03-05T15:05:16.131Z,90.80
2023-03-05T15:07:45.208Z,90.90
2023-03-05T15:10:16.928Z,90.60
2023-03-05T15:12:45.466Z,91.10
2023-03-05T15:15:15.686Z,91.40
2023-03-05T15:17:47.944Z,91.00
2023-03-05T15:20:20.487Z,91.40
2023-03-05T15:22:48.533Z,91.80
2023-03-05T15:25:17.077Z,92.30
2023-03-05T15:27:46.165Z,92.50
2023-03-05T15:30:23.125Z,92.90
2023-03-05T15:32:54.140Z,93.20
2023-03-05T15:35:22.893Z,93.30
2023-03-05T15:37:51.082Z,93.80
2023-03-05T15:40:19.603Z,93.40
2023-03-05T15:42:48.189Z,93.60
2023-03-05T15:45:16.787Z,93.50
2023-03-05T15:47:44.812Z,93.30
2023-03-05T15:50:15.533Z,92.80
2023-03-05T15:52:43.777Z,92.70
2023-03-05T15:55:12.511Z,92.40
2023-03-05T15:57:46.175Z,91.60
2023-03-05T16:00:16.310Z,91.60
2023-03-05T16:02:44.431Z,90.90
2023-03-05T16:05:13.834Z,90.30
2023-03-05T16:07:45.432Z,90.20
2023-03-05T16:10:17.582Z,90.00
2023-03-05T16:12:47.493Z,89.70
2023-03-05T16:15:19.425Z,89.40
2023-03-05T16:17:51.268Z,88.80
2023-03-05T16:20:21.650Z,89.00
2023-03-05T16:22:49.851Z,88.70
2023-03-05T16:25:18.908Z,88.00
2023-03-05T16:27:46.960Z,88.20
2023-03-05T16:30:17.147Z,88.50
2023-03-05T16:32:45.339Z,89.20
2023-03-05T16:35:13.640Z,88.60
2023-03-05T16:37:43.310Z,88.90
2023-03-05T16:40:13.059Z,89.70
2023-03-05T16:42:41.951Z,90.30
2023-03-05T16:45:11.662Z,90.70
2023-03-05T16:47:40.469Z,90.60
2023-03-05T16:50:10.462Z,90.80
2023-03-05T16:52:38.652Z,90.70
2023-03-05T16:55:08.699Z,90.80
2023-03-05T16:57:39.376Z,90.50
2023-03-05T17:00:09.170Z,90.20
2023-03-05T17:02:37.256Z,89.70
2023-03-05T17:05:05.892Z,89.70
2023-03-05T17:07:33.954Z,89.80
2023-03-05T17:10:02.087Z,89.40
2023-03-05T17:12:31.573Z,89.10
2023-03-05T17:14:59.589Z,87.90
2023-03-05T17:17:27.645Z,85.90
2023-03-05T17:19:55.642Z,86.40
2023-03-05T17:22:23.805Z,85.50
2023-03-05T17:24:51.859Z,85.00
2023-03-05T17:27:22.612Z,85.00
2023-03-05T17:29:52.030Z,85.50
2023-03-05T17:32:20.205Z,86.10
2023-03-05T17:34:48.310Z,85.90
2023-03-05T17:37:19.237Z,86.50
2023-03-05T17:39:47.297Z,86.80
2023-03-05T17:42:16.497Z,86.60
2023-03-05T17:44:44.829Z,87.20
2023-03-05T17:47:14.229Z,87.30
2023-03-05T17:49:42.571Z,87.60
2023-03-05T17:52:10.806Z,88.10
2023-03-05T17:54:38.923Z,88.70
2023-03-05T17:57:07.383Z,88.90
2023-03-05T17:59:35.397Z,89.10
2023-03-05T18:02:03.648Z,89.00
2023-03-05T18:04:33.940Z,88.70
2023-03-05T18:07:02.682Z,88.50
2023-03-05T18:09:30.835Z,88.30
2023-03-05T18:11:58.951Z,89.00
2023-03-05T18:14:28.603Z,89.00
2023-03-05T18:16:58.231Z,89.10
2023-03-05T18:19:26.313Z,89.40
2023-03-05T18:21:55.707Z,89.10
2023-03-05T18:24:23.867Z,88.80
2023-03-05T18:26:51.943Z,89.40
2023-03-05T18:29:20.023Z,89.40
2023-03-05T18:31:48.172Z,89.10
2023-03-05T18:34:17.591Z,89.10
2023-03-05T18:36:45.663Z,88.90
2023-03-05T18:39:16.336Z,89.00
2023-03-05T18:41:44.487Z,88.90
2023-03-05T18:44:13.448Z,88.70
2023-03-05T18:46:41.888Z,89.00
2023-03-05T18:49:10.102Z,89.30
2023-03-05T18:51:38.294Z,88.80
2023-03-05T18:54:06.397Z,88.40
2023-03-05T18:56:37.450Z,88.90
2023-03-05T18:59:05.848Z,89.40
2023-03-05T19:01:34.419Z,89.30
2023-03-05T19:04:02.565Z,89.30
2023-03-05T19:06:30.796Z,89.10
2023-03-05T19:09:00.849Z,89.10
2023-03-05T19:11:28.852Z,89.80
2023-03-05T19:13:58.529Z,89.80
2023-03-05T19:16:30.995Z,90.00
2023-03-05T19:19:05.153Z,89.70
2023-03-05T19:21:33.693Z,89.80
2023-03-05T19:24:01.786Z,89.70
2023-03-05T19:26:29.940Z,89.80
2023-03-05T19:28:59.350Z,89.60
2023-03-05T19:31:27.524Z,89.60
2023-03-05T19:33:55.667Z,89.20
2023-03-05T19:36:23.864Z,89.00
2023-03-05T19:38:52.420Z,89.40
2023-03-05T19:41:21.765Z,89.90
2023-03-05T19:43:50.943Z,89.50
2023-03-05T19:46:20.519Z,90.00
2023-03-05T19:48:49.496Z,90.10
2023-03-05T19:51:20.555Z,90.00
2023-03-05T19:53:49.189Z,89.90
2023-03-05T19:56:18.529Z,90.30
2023-03-05T19:58:49.033Z,90.30
2023-03-05T20:01:19.170Z,90.30
2023-03-05T20:03:50.101Z,90.40
2023-03-05T20:06:18.449Z,90.50
2023-03-05T20:08:46.751Z,90.40
2023-03-05T20:11:16.874Z,90.50
2023-03-05T20:13:45.505Z,90.40
2023-03-05T20:16:18.224Z,89.90
2023-03-05T20:18:52.627Z,89.90
2023-03-05T20:21:23.279Z,89.70
2023-03-05T20:23:51.741Z,90.00
2023-03-05T20:26:20.439Z,90.00
2023-03-05T20:28:49.132Z,89.80
2023-03-05T20:31:20.607Z,89.50
2023-03-05T20:33:50.226Z,89.50
2023-03-05T20:36:18.303Z,89.20
2023-03-05T20:38:47.044Z,90.10
2023-03-05T20:41:17.692Z,90.30
2023-03-05T20:43:48.799Z,90.80
2023-03-05T20:46:18.967Z,91.30
2023-03-05T20:48:50.732Z,91.40
2023-03-05T20:51:22.682Z,91.60
2023-03-05T20:53:51.044Z,91.80
2023-03-05T20:56:19.452Z,92.00
2023-03-05T20:58:47.605Z,92.20
2023-03-05T21:01:15.636Z,92.40
2023-03-05T21:03:43.662Z,92.50
2023-03-05T21:06:13.070Z,92.50
2023-03-05T21:08:41.486Z,92.70
2023-03-05T21:11:11.320Z,92.70
2023-03-05T21:13:39.574Z,92.70
2023-03-05T21:16:09.875Z,92.90
2023-03-05T21:18:37.990Z,93.00
2023-03-05T21:21:06.463Z,93.00
2023-03-05T21:23:36.099Z,93.00
2023-03-05T21:26:04.596Z,93.00
2023-03-05T21:28:33.178Z,93.20
2023-03-05T21:31:08.342Z,93.40
2023-03-05T21:33:36.493Z,93.50
2023-03-05T21:36:06.411Z,93.60
2023-03-05T21:38:35.870Z,93.80
2023-03-05T21:41:05.346Z,93.80
2023-03-05T21:43:34.031Z,93.90
2023-03-05T21:46:04.307Z,93.90
2023-03-05T21:48:33.214Z,94.00
2023-03-05T21:51:01.315Z,94.20
2023-03-05T21:53:29.353Z,94.60
2023-03-05T21:56:10.958Z,94.90
2023-03-05T21:58:39.077Z,95.00
2023-03-05T22:01:07.168Z,95.00
2023-03-05T22:03:35.229Z,94.90
2023-03-05T22:06:03.269Z,95.00
2023-03-05T22:08:31.591Z,95.20
2023-03-05T22:11:00.953Z,95.40
2023-03-05T22:13:28.981Z,95.40
2023-03-05T22:15:59.407Z,95.40
2023-03-05T22:18:29.697Z,95.60
2023-03-05T22:20:58.821Z,95.60
2023-03-05T22:23:29.257Z,95.50
2023-03-05T22:25:57.780Z,95.50
2023-03-05T22:28:28.060Z,95.50
2023-03-05T22:30:56.847Z,95.40
2023-03-05T22:33:25.380Z,95.60
2023-03-05T22:35:53.593Z,95.70
2023-03-05T22:38:21.791Z,95.90
2023-03-05T22:40:51.354Z,96.00
2023-03-05T22:43:20.674Z,96.10
2023-03-05T22:45:50.093Z,96.10
2023-03-05T22:48:18.134Z,96.10
2023-03-05T22:50:46.142Z,96.00
2023-03-05T22:53:14.317Z,96.00
2023-03-05T22:55:42.968Z,96.20
2023-03-05T22:58:11.169Z,96.20
2023-03-05T23:00:39.392Z,96.20
2023-03-05T23:03:08.788Z,96.30
2023-03-05T23:05:39.081Z,96.20
2023-03-05T23:08:07.358Z,96.20
2023-03-05T23:10:35.659Z,96.30
2023-03-05T23:13:03.756Z,96.30
2023-03-05T23:15:34.074Z,96.30
2023-03-05T23:18:03.099Z,96.30
2023-03-05T23:20:34.532Z,96.40
2023-03-05T23:23:03.334Z,96.50
2023-03-05T23:25:33.482Z,96.60
2023-03-05T23:28:02.533Z,96.20
2023-03-05T23:30:31.708Z,96.20
2023-03-05T23:33:04.048Z,96.30
2023-03-05T23:35:36.155Z,96.40
2023-03-05T23:38:06.302Z,96.60
2023-03-05T23:40:37.301Z,96.50
2023-03-05T23:43:05.676Z,96.60
2023-03-05T23:45:33.964Z,96.70
2023-03-05T23:48:03.311Z,96.60
2023-03-05T23:50:35.167Z,96.50
2023-03-05T23:53:03.741Z,96.30
2023-03-05T23:55:34.751Z,96.40
2023-03-05T23:58:03.442Z,96.20
